Time;durP1;ratioP1;P1;durP2;ratioP2;P2;SDS_P1;SDS_P2;PMS_P1;PMS_P2;Temp;Humidity;BMP_temperature;BMP_pressure;BME280_temperature;BME280_humidity;BME280_pressure;Samples;Min_cycle;Max_cycle;Signal;HPM_P1;HPM_P2
2021/04/09 00:00:13;;;;;;;16.60;13.43;;;5.60;99.90;;;;;;5012685;28;20644;-79
2021/04/09 00:03:06;;;;;;;17.33;13.17;;;5.50;99.90;;;;;;5008550;28;20241;-78
2021/04/09 00:05:33;;;;;;;14.90;13.27;;;5.50;99.90;;;;;;5002071;28;20238;-80
2021/04/09 00:08:02;;;;;;;17.53;14.60;;;5.50;99.90;;;;;;5024141;28;20479;-78
2021/04/09 00:10:30;;;;;;;14.70;12.80;;;5.50;99.90;;;;;;5033048;28;20243;-79
2021/04/09 00:12:58;;;;;;;17.47;13.30;;;5.60;99.90;;;;;;5003528;28;20293;-78
2021/04/09 00:15:25;;;;;;;16.07;13.47;;;5.50;99.90;;;;;;4993951;28;20251;-79
2021/04/09 00:17:53;;;;;;;18.50;13.50;;;5.50;99.90;;;;;;5003839;28;20480;-78
2021/04/09 00:20:23;;;;;;;16.83;13.03;;;5.50;99.90;;;;;;5013504;28;20295;-79
2021/04/09 00:22:51;;;;;;;15.13;12.90;;;5.50;99.90;;;;;;5018319;28;20238;-78
2021/04/09 00:25:21;;;;;;;15.93;12.50;;;5.50;99.90;;;;;;4994742;28;20826;-78
2021/04/09 00:27:49;;;;;;;18.07;12.90;;;5.50;99.90;;;;;;5006091;28;20620;-78
2021/04/09 00:30:24;;;;;;;14.70;12.77;;;5.50;99.90;;;;;;5012691;28;20240;-78
2021/04/09 00:32:51;;;;;;;17.50;12.60;;;5.50;99.90;;;;;;4994466;28;20236;-79
2021/04/09 00:35:19;;;;;;;17.03;13.23;;;5.50;99.90;;;;;;4994031;28;20836;-78
2021/04/09 00:37:47;;;;;;;16.00;13.67;;;5.40;99.90;;;;;;4993991;28;20800;-79
2021/04/09 00:40:15;;;;;;;15.33;13.20;;;5.50;99.90;;;;;;5008445;28;20994;-78
2021/04/09 00:42:44;;;;;;;14.67;13.03;;;5.50;99.90;;;;;;5000081;28;20232;-78
2021/04/09 00:45:14;;;;;;;15.10;13.50;;;5.50;99.90;;;;;;5013742;28;20329;-79
2021/04/09 00:47:42;;;;;;;17.40;13.43;;;5.50;99.90;;;;;;5006917;28;20264;-79
2021/04/09 00:50:11;;;;;;;15.63;13.37;;;5.50;99.90;;;;;;5013572;28;20902;-79
2021/04/09 00:52:41;;;;;;;16.60;13.73;;;5.50;99.90;;;;;;5020199;28;20731;-79
2021/04/09 00:55:12;;;;;;;16.03;13.57;;;5.50;99.90;;;;;;5012075;28;20759;-80
2021/04/09 00:57:40;;;;;;;16.33;13.23;;;5.50;99.90;;;;;;5012848;28;20233;-79
2021/04/09 01:00:12;;;;;;;15.37;13.77;;;5.50;99.90;;;;;;5012366;28;20578;-80
2021/04/09 01:02:40;;;;;;;17.10;13.77;;;5.50;99.90;;;;;;5003084;28;20412;-79
2021/04/09 01:05:12;;;;;;;17.57;13.70;;;5.50;99.90;;;;;;5023645;28;20513;-79
2021/04/09 01:07:40;;;;;;;19.47;13.77;;;5.40;99.90;;;;;;5019315;28;20233;-80
2021/04/09 01:10:09;;;;;;;16.87;13.77;;;5.40;99.90;;;;;;5011920;28;20491;-80
2021/04/09 01:12:37;;;;;;;19.27;15.53;;;5.40;99.90;;;;;;5020157;28;20479;-79
2021/04/09 01:15:08;;;;;;;18.13;13.87;;;5.50;99.90;;;;;;5011893;28;20488;-79
2021/04/09 01:17:41;;;;;;;18.03;13.20;;;5.40;99.90;;;;;;5011876;28;20774;-79
2021/04/09 01:20:41;;;;;;;17.57;13.40;;;5.40;99.90;;;;;;4997927;28;20469;-79
2021/04/09 01:23:46;;;;;;;17.87;13.57;;;5.30;99.90;;;;;;4996903;28;20234;-79
2021/04/09 01:27:06;;;;;;;20.27;13.70;;;5.40;99.90;;;;;;4988145;28;20496;-79
2021/04/09 01:30:23;;;;;;;16.67;14.00;;;5.40;99.90;;;;;;4969212;28;20705;-79
2021/04/09 01:32:53;;;;;;;16.43;13.33;;;5.40;99.90;;;;;;4995328;28;20230;-79
2021/04/09 01:35:24;;;;;;;15.93;12.93;;;5.40;99.90;;;;;;5008524;28;20482;-79
2021/04/09 01:37:57;;;;;;;17.20;13.30;;;5.30;99.90;;;;;;4993209;28;20319;-79
2021/04/09 01:40:32;;;;;;;18.27;13.40;;;5.30;99.90;;;;;;4992820;28;20477;-79
2021/04/09 01:43:04;;;;;;;15.97;12.97;;;5.30;99.90;;;;;;5007751;28;20484;-79
2021/04/09 01:45:33;;;;;;;14.90;13.33;;;5.30;99.90;;;;;;5010874;28;20315;-79
2021/04/09 01:48:05;;;;;;;20.67;14.93;;;5.30;99.90;;;;;;5012310;28;20240;-79
2021/04/09 01:50:34;;;;;;;16.37;13.70;;;5.30;99.90;;;;;;5012148;28;20572;-79
2021/04/09 01:53:02;;;;;;;15.70;13.90;;;5.30;99.90;;;;;;5005924;28;20511;-79
2021/04/09 01:55:32;;;;;;;20.43;13.63;;;5.30;99.90;;;;;;4993029;28;20296;-79
2021/04/09 01:58:02;;;;;;;20.53;14.00;;;5.30;99.90;;;;;;5006494;28;20237;-79
2021/04/09 02:00:32;;;;;;;21.17;14.37;;;5.30;99.90;;;;;;5010384;28;20778;-79
2021/04/09 02:03:01;;;;;;;20.33;14.03;;;5.30;99.90;;;;;;5018054;28;20243;-80
2021/04/09 02:05:29;;;;;;;17.27;13.57;;;5.30;99.90;;;;;;5032104;28;20248;-79
2021/04/09 02:07:59;;;;;;;18.47;13.67;;;5.30;99.90;;;;;;5020161;28;20493;-79
2021/04/09 02:10:28;;;;;;;17.13;13.20;;;5.20;99.90;;;;;;5011605;28;20294;-80
2021/04/09 02:12:56;;;;;;;17.07;14.17;;;5.20;99.90;;;;;;5009750;28;20236;-79
2021/04/09 02:15:26;;;;;;;16.23;13.70;;;5.20;99.90;;;;;;5012804;28;20531;-79
2021/04/09 02:17:53;;;;;;;19.77;14.30;;;5.20;99.90;;;;;;5012363;28;20488;-79
2021/04/09 02:20:23;;;;;;;17.10;13.50;;;5.20;99.90;;;;;;5012075;28;20267;-79
2021/04/09 02:22:52;;;;;;;18.73;14.43;;;5.10;99.90;;;;;;5010184;28;20543;-81
2021/04/09 02:25:23;;;;;;;16.27;13.37;;;5.20;99.90;;;;;;5011923;28;20248;-79
2021/04/09 02:27:52;;;;;;;18.30;13.20;;;5.20;99.90;;;;;;5011659;28;20648;-79
2021/04/09 02:30:22;;;;;;;19.00;14.80;;;5.10;99.90;;;;;;5001216;28;21067;-79
2021/04/09 02:32:50;;;;;;;19.67;14.27;;;5.10;99.90;;;;;;5008437;28;20242;-81
2021/04/09 02:35:19;;;;;;;18.10;13.70;;;5.10;99.90;;;;;;5012244;28;20480;-79
2021/04/09 02:37:50;;;;;;;17.30;13.20;;;5.10;99.90;;;;;;5010666;28;20479;-81
2021/04/09 02:40:23;;;;;;;16.90;12.97;;;5.10;99.90;;;;;;5011470;28;20492;-80
2021/04/09 02:42:52;;;;;;;17.60;14.10;;;5.00;99.90;;;;;;5011752;28;20480;-79
2021/04/09 02:45:23;;;;;;;17.50;13.50;;;5.00;99.90;;;;;;5002823;28;20241;-79
2021/04/09 02:47:53;;;;;;;19.10;14.07;;;5.00;99.90;;;;;;5011328;28;20237;-80
2021/04/09 02:50:29;;;;;;;17.07;13.77;;;5.00;99.90;;;;;;5012097;28;20510;-79
2021/04/09 02:53:02;;;;;;;20.07;14.43;;;5.00;99.90;;;;;;5007716;28;20232;-79
2021/04/09 02:55:34;;;;;;;18.20;13.80;;;5.00;99.90;;;;;;5010427;28;20479;-79
2021/04/09 02:58:05;;;;;;;19.33;14.37;;;4.90;99.90;;;;;;5015718;28;20476;-79
2021/04/09 03:00:34;;;;;;;18.80;13.63;;;4.90;99.90;;;;;;5040172;28;20496;-79
2021/04/09 03:03:03;;;;;;;19.73;14.23;;;4.90;99.90;;;;;;5012974;28;20488;-79
2021/04/09 03:05:30;;;;;;;18.53;14.00;;;4.90;99.90;;;;;;5015356;28;20483;-79
2021/04/09 03:08:00;;;;;;;18.87;14.20;;;4.80;99.90;;;;;;5014663;28;20488;-80
2021/04/09 03:10:27;;;;;;;17.43;14.13;;;4.80;99.90;;;;;;5014878;28;20483;-79
2021/04/09 03:12:55;;;;;;;16.73;13.20;;;4.80;99.90;;;;;;5003393;28;20883;-79
2021/04/09 03:15:28;;;;;;;17.10;14.07;;;4.80;99.90;;;;;;4996642;28;21002;-79
2021/04/09 03:17:58;;;;;;;16.77;14.17;;;4.70;99.90;;;;;;5006489;28;20487;-79
2021/04/09 03:20:25;;;;;;;20.50;14.83;;;4.70;99.90;;;;;;5029678;28;20488;-79
2021/04/09 03:22:53;;;;;;;18.10;14.40;;;4.70;99.90;;;;;;5022387;28;20228;-79
2021/04/09 03:25:21;;;;;;;20.20;14.40;;;4.70;99.90;;;;;;4995302;28;20272;-79
2021/04/09 03:27:53;;;;;;;18.07;14.13;;;4.70;99.90;;;;;;4995255;28;20476;-79
2021/04/09 03:30:23;;;;;;;17.77;14.77;;;4.70;99.90;;;;;;4995898;28;20489;-79
2021/04/09 03:32:50;;;;;;;21.30;15.13;;;4.80;99.90;;;;;;4995062;28;20483;-81
2021/04/09 03:35:20;;;;;;;17.10;14.57;;;4.70;99.90;;;;;;5000523;28;20533;-80
2021/04/09 03:37:48;;;;;;;21.43;14.97;;;4.70;99.90;;;;;;5012272;28;20722;-79
2021/04/09 03:40:18;;;;;;;20.17;14.60;;;4.70;99.90;;;;;;5011144;28;20483;-79
2021/04/09 03:42:47;;;;;;;19.97;13.97;;;4.70;99.90;;;;;;5012607;28;20475;-79
2021/04/09 03:45:15;;;;;;;16.83;13.67;;;4.70;99.90;;;;;;5014612;28;20294;-82
2021/04/09 03:47:42;;;;;;;19.80;14.13;;;4.70;99.90;;;;;;5004865;28;20496;-79
2021/04/09 03:50:10;;;;;;;17.57;13.63;;;4.70;99.90;;;;;;4994568;28;20489;-79
2021/04/09 03:52:38;;;;;;;18.97;14.60;;;4.70;99.90;;;;;;5012128;28;20491;-80
2021/04/09 03:55:09;;;;;;;17.97;14.50;;;4.70;99.90;;;;;;4995667;28;20994;-80
2021/04/09 03:57:36;;;;;;;19.50;13.83;;;4.70;99.90;;;;;;5011373;28;20522;-79
2021/04/09 04:00:07;;;;;;;17.00;14.63;;;4.70;99.90;;;;;;5013963;28;20538;-79
2021/04/09 04:02:35;;;;;;;17.83;14.03;;;4.70;99.90;;;;;;5012973;28;20492;-79
2021/04/09 04:05:04;;;;;;;19.10;14.73;;;4.80;99.90;;;;;;5013481;28;20480;-79
2021/04/09 04:07:35;;;;;;;19.77;14.30;;;4.70;99.90;;;;;;5012423;28;20472;-80
2021/04/09 04:10:04;;;;;;;17.23;13.83;;;4.70;99.90;;;;;;5013789;28;20488;-80
2021/04/09 04:12:32;;;;;;;20.53;14.63;;;4.60;99.90;;;;;;5011921;28;20490;-80
2021/04/09 04:15:00;;;;;;;18.83;13.83;;;4.60;99.90;;;;;;5013730;28;20511;-79
2021/04/09 04:17:28;;;;;;;19.73;14.23;;;4.60;99.90;;;;;;5012055;28;20553;-79
2021/04/09 04:19:55;;;;;;;22.47;14.33;;;4.70;99.90;;;;;;5011702;28;20504;-79
2021/04/09 04:22:23;;;;;;;19.90;15.07;;;4.70;99.90;;;;;;5004262;28;20536;-79
2021/04/09 04:24:51;;;;;;;18.53;14.27;;;4.70;99.90;;;;;;4997980;28;20476;-79
2021/04/09 04:27:18;;;;;;;15.90;13.90;;;4.60;99.90;;;;;;5012815;28;20476;-79
2021/04/09 04:29:46;;;;;;;19.80;14.60;;;4.80;99.90;;;;;;5012839;28;20519;-79
2021/04/09 04:32:13;;;;;;;18.40;13.83;;;4.70;99.90;;;;;;5011840;28;21245;-79
2021/04/09 04:34:42;;;;;;;18.27;14.43;;;4.70;99.90;;;;;;5011722;28;21020;-79
2021/04/09 04:37:09;;;;;;;20.17;13.33;;;4.80;99.90;;;;;;5005020;28;20491;-80
2021/04/09 04:39:37;;;;;;;16.57;13.70;;;4.70;99.90;;;;;;5026325;28;20568;-79
2021/04/09 04:42:05;;;;;;;20.93;14.13;;;4.70;99.90;;;;;;5012160;28;21047;-80
2021/04/09 04:44:32;;;;;;;17.27;14.20;;;4.70;99.90;;;;;;5012847;28;21044;-79
2021/04/09 04:47:00;;;;;;;19.40;13.83;;;4.70;99.90;;;;;;4999475;28;20481;-79
2021/04/09 04:49:27;;;;;;;19.20;15.07;;;4.70;99.90;;;;;;4992945;28;20571;-79
2021/04/09 04:51:56;;;;;;;19.80;15.03;;;4.80;99.90;;;;;;4992542;28;20863;-78
2021/04/09 04:54:23;;;;;;;18.97;14.73;;;4.80;99.90;;;;;;4992614;28;20857;-78
2021/04/09 04:56:50;;;;;;;17.40;14.60;;;4.80;99.90;;;;;;4995335;28;20503;-80
2021/04/09 04:59:20;;;;;;;18.47;14.03;;;4.80;99.90;;;;;;5010457;28;20550;-79
2021/04/09 05:01:47;;;;;;;19.17;14.20;;;4.80;99.90;;;;;;5022525;28;20467;-78
2021/04/09 05:04:15;;;;;;;16.63;14.10;;;4.80;99.90;;;;;;5011822;28;20485;-78
2021/04/09 05:06:42;;;;;;;20.23;14.47;;;4.80;99.90;;;;;;5012663;28;20534;-78
2021/04/09 05:09:10;;;;;;;19.87;13.53;;;4.80;99.90;;;;;;5012647;28;20481;-79
2021/04/09 05:11:38;;;;;;;19.80;14.10;;;4.80;99.90;;;;;;5008894;28;20495;-80
2021/04/09 05:14:05;;;;;;;18.63;13.77;;;4.90;99.90;;;;;;5007761;28;20499;-79
2021/04/09 05:16:32;;;;;;;18.87;14.70;;;4.90;99.90;;;;;;5012386;28;20294;-79
2021/04/09 05:19:00;;;;;;;19.77;14.37;;;4.90;99.90;;;;;;5010423;28;21047;-81
2021/04/09 05:21:28;;;;;;;19.73;14.03;;;4.90;99.90;;;;;;5011302;28;20320;-79
2021/04/09 05:23:55;;;;;;;16.07;13.43;;;4.90;99.90;;;;;;5011182;28;20525;-79
2021/04/09 05:26:24;;;;;;;17.93;13.87;;;4.90;99.90;;;;;;5026970;28;20482;-79
2021/04/09 05:28:51;;;;;;;19.43;14.13;;;4.90;99.90;;;;;;5023734;28;20243;-78
2021/04/09 05:31:19;;;;;;;19.93;13.40;;;4.90;99.90;;;;;;5008658;28;20484;-79
2021/04/09 05:33:46;;;;;;;17.70;13.97;;;4.90;99.90;;;;;;5005603;28;20866;-80
2021/04/09 05:36:14;;;;;;;18.57;13.47;;;4.90;99.90;;;;;;5006669;28;21175;-79
2021/04/09 05:38:41;;;;;;;21.67;14.00;;;5.00;99.90;;;;;;5010828;28;20239;-81
2021/04/09 05:41:09;;;;;;;19.77;14.43;;;5.00;99.90;;;;;;5011470;28;20492;-79
2021/04/09 05:43:37;;;;;;;18.93;13.60;;;5.00;99.90;;;;;;5011233;28;20493;-79
2021/04/09 05:46:04;;;;;;;21.53;14.40;;;5.00;99.90;;;;;;5009734;28;20622;-78
2021/04/09 05:48:32;;;;;;;18.87;14.17;;;5.00;99.90;;;;;;5010794;28;20891;-80
2021/04/09 05:51:00;;;;;;;20.03;14.00;;;5.00;99.90;;;;;;5010314;28;20556;-79
2021/04/09 05:53:27;;;;;;;17.07;13.43;;;5.10;99.90;;;;;;4994876;28;20476;-79
2021/04/09 05:55:54;;;;;;;18.50;13.70;;;5.00;99.90;;;;;;5011681;28;20503;-78
2021/04/09 05:58:22;;;;;;;18.10;13.80;;;5.00;99.90;;;;;;5010090;28;20475;-79
2021/04/09 06:00:50;;;;;;;17.13;13.23;;;5.10;99.90;;;;;;5022199;28;20488;-78
2021/04/09 06:03:19;;;;;;;19.83;13.53;;;5.00;99.90;;;;;;5009331;28;20520;-79
2021/04/09 06:05:46;;;;;;;18.83;13.10;;;5.00;99.90;;;;;;5008335;28;20472;-79
2021/04/09 06:08:14;;;;;;;18.57;13.30;;;5.10;99.90;;;;;;5010217;28;20561;-78
2021/04/09 06:10:41;;;;;;;19.60;13.73;;;5.10;99.90;;;;;;5011885;28;20514;-80
2021/04/09 06:13:09;;;;;;;19.70;13.43;;;5.10;99.90;;;;;;5014634;28;20485;-79
2021/04/09 06:15:37;;;;;;;17.70;13.13;;;5.20;99.90;;;;;;5006534;28;20477;-79
2021/04/09 06:18:06;;;;;;;20.20;13.63;;;5.30;99.90;;;;;;4992066;28;20927;-81
2021/04/09 06:20:34;;;;;;;17.80;13.50;;;5.30;99.90;;;;;;4991186;28;20481;-79
2021/04/09 06:23:01;;;;;;;18.93;13.90;;;5.40;99.90;;;;;;5004525;28;20537;-79
2021/04/09 06:25:29;;;;;;;18.50;13.73;;;5.50;99.90;;;;;;5019689;28;20988;-79
2021/04/09 06:27:56;;;;;;;22.10;14.03;;;5.50;99.90;;;;;;5022266;28;20317;-79
2021/04/09 06:30:24;;;;;;;18.10;13.00;;;5.50;99.90;;;;;;5014956;28;20496;-79
2021/04/09 06:32:52;;;;;;;18.63;13.77;;;5.60;99.90;;;;;;5015967;28;20473;-79
2021/04/09 06:35:21;;;;;;;17.83;12.80;;;5.70;99.90;;;;;;5012808;28;20851;-80
2021/04/09 06:37:50;;;;;;;18.63;13.17;;;5.60;99.90;;;;;;5008888;28;21836;-80
2021/04/09 06:40:20;;;;;;;17.57;13.13;;;5.70;99.90;;;;;;5029719;28;20325;-78
2021/04/09 06:42:48;;;;;;;18.07;12.80;;;5.70;99.90;;;;;;5011957;28;20640;-79
2021/04/09 06:45:17;;;;;;;20.50;12.67;;;5.80;99.90;;;;;;5010440;28;20477;-78
2021/04/09 06:47:44;;;;;;;19.00;13.03;;;6.10;99.90;;;;;;5003271;28;20291;-80
2021/04/09 06:50:12;;;;;;;15.80;11.90;;;6.10;99.90;;;;;;5006715;28;20239;-78
2021/04/09 06:52:42;;;;;;;16.50;13.10;;;6.20;99.90;;;;;;5020726;28;20507;-78
2021/04/09 06:55:12;;;;;;;15.63;12.67;;;6.20;99.90;;;;;;5013315;28;20475;-79
2021/04/09 06:57:40;;;;;;;16.80;12.80;;;6.30;99.90;;;;;;5012391;28;20229;-78
2021/04/09 07:00:11;;;;;;;20.67;13.40;;;6.30;99.90;;;;;;5011215;28;20863;-77
2021/04/09 07:02:42;;;;;;;18.10;13.27;;;6.20;99.90;;;;;;5013935;28;20489;-80
2021/04/09 07:05:11;;;;;;;16.63;13.20;;;6.20;99.90;;;;;;5009709;28;20243;-79
2021/04/09 07:07:39;;;;;;;18.63;13.40;;;6.30;99.90;;;;;;5014042;28;20256;-78
2021/04/09 07:10:09;;;;;;;17.80;13.83;;;6.40;99.90;;;;;;5013365;28;20295;-79
2021/04/09 07:12:36;;;;;;;16.17;12.97;;;6.40;99.90;;;;;;5014889;28;20536;-79
2021/04/09 07:15:07;;;;;;;20.70;13.63;;;6.40;99.90;;;;;;5015081;28;20276;-79
2021/04/09 07:17:38;;;;;;;17.83;12.53;;;6.50;99.90;;;;;;5007034;28;20288;-80
2021/04/09 07:20:13;;;;;;;17.60;12.83;;;6.60;99.90;;;;;;5014099;28;20244;-79
2021/04/09 07:22:44;;;;;;;17.07;12.87;;;6.80;99.90;;;;;;5004008;28;20234;-78
2021/04/09 07:25:15;;;;;;;17.83;12.17;;;6.80;99.90;;;;;;5006336;28;20286;-78
2021/04/09 07:27:45;;;;;;;17.83;13.43;;;6.80;99.90;;;;;;5005869;28;20283;-79
2021/04/09 07:30:18;;;;;;;17.17;13.17;;;7.00;99.90;;;;;;5008817;28;20701;-79
2021/04/09 07:32:46;;;;;;;19.37;13.70;;;7.00;99.90;;;;;;5011476;28;20236;-79
2021/04/09 07:35:15;;;;;;;19.17;12.73;;;7.10;99.90;;;;;;5014466;28;20685;-78
2021/04/09 07:37:55;;;;;;;19.23;13.20;;;7.20;99.90;;;;;;5014187;28;20233;-78
2021/04/09 07:40:27;;;;;;;17.47;13.07;;;7.30;99.90;;;;;;5011006;28;20237;-79
2021/04/09 07:42:56;;;;;;;20.47;13.17;;;7.50;99.90;;;;;;5008338;28;20260;-78
2021/04/09 07:45:27;;;;;;;18.83;13.07;;;7.70;99.90;;;;;;5004546;28;20238;-80
2021/04/09 07:48:00;;;;;;;18.80;13.03;;;7.80;99.90;;;;;;5001755;28;20229;-78
2021/04/09 07:50:39;;;;;;;17.53;13.17;;;8.20;99.90;;;;;;5013114;28;20268;-81
2021/04/09 07:53:10;;;;;;;18.57;12.47;;;8.60;99.90;;;;;;5012273;28;20241;-78
2021/04/09 07:55:38;;;;;;;16.93;13.33;;;8.80;99.90;;;;;;5010268;28;20283;-80
2021/04/09 07:58:18;;;;;;;16.67;12.40;;;8.90;99.90;;;;;;5016792;28;20236;-78
2021/04/09 08:00:52;;;;;;;16.47;12.47;;;9.00;99.90;;;;;;5010017;28;20240;-78
2021/04/09 08:03:35;;;;;;;17.87;11.87;;;9.20;99.90;;;;;;5010737;28;20237;-79
2021/04/09 08:06:08;;;;;;;17.27;12.40;;;9.60;99.90;;;;;;5010203;28;20243;-80
2021/04/09 08:08:39;;;;;;;16.13;12.17;;;10.00;99.90;;;;;;5011004;28;20252;-79
2021/04/09 08:11:27;;;;;;;16.20;12.27;;;10.10;99.90;;;;;;5009269;28;20645;-80
2021/04/09 08:14:01;;;;;;;13.80;11.33;;;10.20;99.90;;;;;;5010761;28;20241;-78
2021/04/09 08:16:31;;;;;;;15.93;11.50;;;10.00;99.90;;;;;;5010638;28;20675;-78
2021/04/09 08:19:01;;;;;;;14.43;10.93;;;10.10;99.90;;;;;;5012822;28;20241;-78
2021/04/09 08:21:30;;;;;;;15.50;11.13;;;10.20;99.90;;;;;;5009883;28;20277;-79
2021/04/09 08:23:59;;;;;;;13.40;11.47;;;10.30;99.90;;;;;;5011768;28;20373;-78
2021/04/09 08:26:28;;;;;;;17.23;12.00;;;10.30;99.90;;;;;;5012734;28;20649;-79
2021/04/09 08:28:57;;;;;;;15.87;11.53;;;10.20;99.90;;;;;;5014464;28;20295;-79
2021/04/09 08:31:25;;;;;;;13.87;10.53;;;10.30;99.90;;;;;;5008714;28;20681;-79
2021/04/09 08:33:53;;;;;;;14.87;10.57;;;10.40;99.90;;;;;;5017378;28;20251;-79
2021/04/09 08:36:22;;;;;;;16.80;10.90;;;10.30;99.90;;;;;;5031732;28;20237;-79
2021/04/09 08:38:50;;;;;;;12.97;9.90;;;10.20;99.90;;;;;;5015557;28;20246;-78
2021/04/09 08:41:19;;;;;;;15.27;10.27;;;10.10;99.90;;;;;;5011488;28;20244;-80
2021/04/09 08:43:47;;;;;;;14.10;10.63;;;10.00;99.90;;;;;;5011849;28;20233;-80
2021/04/09 08:46:15;;;;;;;13.50;9.93;;;10.00;99.90;;;;;;5019672;28;20229;-79
2021/04/09 08:48:44;;;;;;;14.67;10.40;;;9.90;99.90;;;;;;5031803;28;20267;-78
2021/04/09 08:51:12;;;;;;;11.13;9.50;;;9.80;99.90;;;;;;5031025;28;20243;-78
2021/04/09 08:53:40;;;;;;;14.03;10.43;;;9.90;99.90;;;;;;5014830;28;20225;-78
2021/04/09 08:56:12;;;;;;;14.30;11.20;;;9.90;99.90;;;;;;5006450;28;20238;-78
2021/04/09 08:58:46;;;;;;;13.53;10.53;;;10.00;99.90;;;;;;5011413;28;20232;-78
2021/04/09 09:01:15;;;;;;;11.93;10.30;;;10.20;99.90;;;;;;5011133;28;20315;-80
2021/04/09 09:03:42;;;;;;;14.03;9.83;;;10.50;99.90;;;;;;5008502;28;20289;-79
2021/04/09 09:06:10;;;;;;;13.37;10.83;;;10.70;99.90;;;;;;5011894;28;20284;-78
2021/04/09 09:09:01;;;;;;;12.87;9.40;;;10.80;99.90;;;;;;5011577;28;20268;-78
2021/04/09 09:11:57;;;;;;;13.47;10.00;;;11.20;99.90;;;;;;5011252;28;20244;-78
2021/04/09 09:14:43;;;;;;;11.90;9.53;;;11.30;99.90;;;;;;4955055;28;20246;-78
2021/04/09 09:17:39;;;;;;;14.17;10.00;;;11.40;99.90;;;;;;5011244;28;20276;-78
2021/04/09 09:20:17;;;;;;;14.07;9.60;;;11.60;99.90;;;;;;5011879;28;20285;-79
2021/04/09 09:22:56;;;;;;;12.80;9.20;;;11.70;99.90;;;;;;5011300;28;20243;-78
2021/04/09 09:25:39;;;;;;;13.97;9.90;;;11.80;99.90;;;;;;5006066;28;20583;-78
2021/04/09 09:28:11;;;;;;;13.37;9.07;;;11.70;99.90;;;;;;5007159;28;20317;-78
2021/04/09 09:30:42;;;;;;;11.50;9.50;;;11.60;99.90;;;;;;5010189;28;20653;-79
2021/04/09 09:33:21;;;;;;;15.90;9.27;;;11.70;99.90;;;;;;5010784;28;20238;-78
2021/04/09 09:35:59;;;;;;;13.20;9.87;;;11.70;99.90;;;;;;5010795;28;20273;-79
2021/04/09 09:38:47;;;;;;;14.73;9.60;;;11.40;99.90;;;;;;5009827;28;20247;-78
2021/04/09 09:41:44;;;;;;;18.93;10.07;;;11.40;99.90;;;;;;5010750;28;20621;-79
2021/04/09 09:44:34;;;;;;;13.87;9.47;;;11.30;99.90;;;;;;5018560;28;20239;-79
2021/04/09 09:47:18;;;;;;;14.03;9.53;;;11.40;99.90;;;;;;5009095;28;20230;-79
2021/04/09 09:50:21;;;;;;;11.10;9.20;;;11.20;99.90;;;;;;5025527;28;20242;-79
2021/04/09 09:52:55;;;;;;;10.73;8.90;;;11.10;99.90;;;;;;5001826;28;20709;-78
2021/04/09 09:55:29;;;;;;;14.50;9.40;;;11.00;99.90;;;;;;5010995;28;20678;-79
2021/04/09 09:58:03;;;;;;;15.23;9.93;;;11.00;99.90;;;;;;5010064;28;20298;-78
2021/04/09 10:00:36;;;;;;;13.73;10.10;;;11.00;99.90;;;;;;5009476;28;20242;-78
2021/04/09 10:03:20;;;;;;;13.37;10.03;;;10.90;99.90;;;;;;5011054;28;20266;-78
2021/04/09 10:05:50;;;;;;;13.63;9.57;;;11.00;99.90;;;;;;5010224;28;20702;-79
2021/04/09 10:08:19;;;;;;;11.33;9.47;;;10.90;99.90;;;;;;5010423;28;20641;-78
2021/04/09 10:10:50;;;;;;;13.73;9.50;;;10.90;99.90;;;;;;5010286;28;20243;-78
2021/04/09 10:13:24;;;;;;;14.53;9.90;;;11.00;99.90;;;;;;4990862;28;20267;-78
2021/04/09 10:15:53;;;;;;;18.87;10.20;;;11.20;99.90;;;;;;4994706;28;20634;-78
2021/04/09 10:18:23;;;;;;;12.67;9.53;;;11.30;99.90;;;;;;4995060;28;20247;-79
2021/04/09 10:20:52;;;;;;;13.43;9.63;;;11.40;99.90;;;;;;5001402;28;20235;-78
2021/04/09 10:23:24;;;;;;;11.13;9.03;;;11.60;99.90;;;;;;5000878;28;20238;-78
2021/04/09 10:25:53;;;;;;;13.23;9.67;;;11.50;99.90;;;;;;5003407;28;20255;-79
2021/04/09 10:28:21;;;;;;;16.53;9.90;;;11.60;99.90;;;;;;5006061;28;20243;-78
2021/04/09 10:30:52;;;;;;;10.40;9.13;;;11.60;99.90;;;;;;4996866;28;20660;-78
2021/04/09 10:33:38;;;;;;;12.93;9.40;;;11.40;99.90;;;;;;4994987;28;20244;-78
2021/04/09 10:36:30;;;;;;;13.77;9.37;;;11.30;99.90;;;;;;5001139;28;20234;-78
2021/04/09 10:39:01;;;;;;;13.67;9.87;;;11.20;99.90;;;;;;4986326;28;20243;-78
2021/04/09 10:41:31;;;;;;;12.47;9.07;;;11.00;99.90;;;;;;4995768;28;20730;-78
2021/04/09 10:44:01;;;;;;;11.87;9.67;;;10.90;99.90;;;;;;5001781;28;20242;-78
2021/04/09 10:46:30;;;;;;;11.30;9.73;;;10.80;99.90;;;;;;4998295;28;20657;-78
2021/04/09 10:49:00;;;;;;;10.47;9.07;;;10.80;99.90;;;;;;4993199;28;20244;-78
2021/04/09 10:51:31;;;;;;;11.10;8.70;;;10.80;99.90;;;;;;4991443;28;20246;-79
2021/04/09 10:54:12;;;;;;;14.57;8.53;;;10.80;99.90;;;;;;4990641;28;20243;-80
2021/04/09 10:56:42;;;;;;;12.40;7.97;;;10.80;99.90;;;;;;4990150;28;20918;-78
2021/04/09 10:59:12;;;;;;;9.07;7.77;;;10.90;99.90;;;;;;4990604;28;20325;-78
2021/04/09 11:01:41;;;;;;;10.93;8.23;;;11.10;99.90;;;;;;4989595;28;20234;-79
2021/04/09 11:04:13;;;;;;;12.23;7.67;;;11.20;99.90;;;;;;4999741;28;20236;-78
2021/04/09 11:06:54;;;;;;;8.93;7.50;;;11.20;99.90;;;;;;5008374;28;20235;-78
2021/04/09 11:09:22;;;;;;;11.23;8.33;;;11.10;99.90;;;;;;5024563;28;20243;-78
2021/04/09 11:11:49;;;;;;;11.10;8.63;;;11.30;99.90;;;;;;5004880;28;20309;-79
2021/04/09 11:14:18;;;;;;;11.00;8.20;;;11.40;99.90;;;;;;5005351;28;20243;-78
2021/04/09 11:16:56;;;;;;;10.60;8.03;;;11.50;99.90;;;;;;5000522;28;20680;-78
2021/04/09 11:19:35;;;;;;;15.63;8.83;;;11.40;99.90;;;;;;5012568;28;20234;-78
2021/04/09 11:22:05;;;;;;;10.70;8.47;;;11.30;99.90;;;;;;5010036;28;20798;-80
2021/04/09 11:24:35;;;;;;;12.30;8.33;;;11.10;99.90;;;;;;5013045;28;20669;-79
2021/04/09 11:27:18;;;;;;;11.80;8.80;;;11.00;99.90;;;;;;5011268;28;20605;-78
2021/04/09 11:29:46;;;;;;;9.57;8.57;;;10.80;99.90;;;;;;5012956;28;20232;-78
2021/04/09 11:32:18;;;;;;;11.27;8.70;;;10.80;99.90;;;;;;5012571;28;20246;-78
2021/04/09 11:34:49;;;;;;;12.33;9.37;;;10.90;99.90;;;;;;5012961;28;20240;-78
2021/04/09 11:37:46;;;;;;;11.33;9.50;;;11.00;99.90;;;;;;5013639;28;20681;-79
2021/04/09 11:40:17;;;;;;;13.10;9.17;;;11.10;99.90;;;;;;5033009;28;20248;-79
2021/04/09 11:42:45;;;;;;;14.27;8.80;;;11.20;99.90;;;;;;5032690;28;22115;-78
2021/04/09 11:45:15;;;;;;;12.43;9.60;;;11.50;99.90;;;;;;5033002;28;20239;-78
2021/04/09 11:47:44;;;;;;;11.47;8.80;;;11.70;99.90;;;;;;4994876;28;20302;-78
2021/04/09 11:50:23;;;;;;;13.93;8.90;;;11.90;99.90;;;;;;4993406;28;20239;-79
2021/04/09 11:52:59;;;;;;;11.17;9.30;;;12.10;99.90;;;;;;4993602;28;20307;-78
2021/04/09 11:55:48;;;;;;;11.33;9.20;;;12.20;99.90;;;;;;5007573;28;20237;-80
2021/04/09 11:58:19;;;;;;;13.17;8.90;;;12.20;99.90;;;;;;4993391;28;20248;-78
2021/04/09 12:00:55;;;;;;;12.13;9.43;;;12.20;99.90;;;;;;4992200;28;20796;-78
2021/04/09 12:03:38;;;;;;;11.90;9.00;;;12.20;99.90;;;;;;4993225;28;21353;-78
2021/04/09 12:06:16;;;;;;;10.13;8.17;;;12.20;99.90;;;;;;4992814;28;20324;-78
2021/04/09 12:08:44;;;;;;;11.80;8.67;;;12.00;99.90;;;;;;4991460;28;20235;-78
2021/04/09 12:11:25;;;;;;;10.10;8.10;;;12.00;99.90;;;;;;1761474;28;10002892;-79
2021/04/09 12:13:53;;;;;;;12.20;8.90;;;12.00;99.90;;;;;;4660519;28;10001046;-80
2021/04/09 12:16:21;;;;;;;10.90;8.37;;;11.90;99.90;;;;;;5010841;28;20318;-78
2021/04/09 12:18:48;;;;;;;11.93;7.77;;;11.70;99.90;;;;;;5005655;28;20225;-78
2021/04/09 12:21:18;;;;;;;11.63;8.07;;;11.50;99.90;;;;;;5011406;28;20285;-80
2021/04/09 12:23:45;;;;;;;9.57;8.40;;;11.40;99.90;;;;;;5012868;28;20268;-80
2021/04/09 12:26:12;;;;;;;12.73;8.57;;;11.30;99.90;;;;;;5012279;28;20612;-78
2021/04/09 12:28:40;;;;;;;11.47;8.50;;;11.30;99.90;;;;;;5010210;28;20293;-78
2021/04/09 12:31:07;;;;;;;11.83;8.53;;;11.30;99.90;;;;;;5008652;28;20294;-78
2021/04/09 12:33:35;;;;;;;10.20;8.13;;;11.30;99.90;;;;;;5011375;28;20255;-78
2021/04/09 12:36:03;;;;;;;8.97;7.83;;;11.30;99.90;;;;;;5010628;28;20230;-79
2021/04/09 12:38:32;;;;;;;10.73;8.27;;;11.30;99.90;;;;;;5027199;28;20680;-77
2021/04/09 12:40:59;;;;;;;10.20;7.37;;;11.20;99.90;;;;;;5011385;28;20237;-78
2021/04/09 12:43:29;;;;;;;11.93;7.93;;;11.20;99.90;;;;;;5010435;28;20248;-78
2021/04/09 12:45:57;;;;;;;9.77;7.87;;;11.10;99.90;;;;;;5008269;28;20248;-77
2021/04/09 12:48:25;;;;;;;11.10;8.63;;;11.10;99.90;;;;;;5005124;28;20261;-77
2021/04/09 12:50:54;;;;;;;9.50;8.27;;;11.20;99.90;;;;;;5007483;28;20244;-77
2021/04/09 12:53:22;;;;;;;10.03;8.00;;;11.40;99.90;;;;;;5004685;28;20631;-78
2021/04/09 12:55:50;;;;;;;11.73;8.70;;;11.40;99.90;;;;;;5009004;28;20224;-78